• Join FlightAware (Why Join?)
  • Login
  • US Flag 
Gobble Gobble! 
08:43PM EST


 

Airport Tracker/Info


-or-


 

Live Flight TrackerFlight Track Log ✈ N775OR ✈ 16-Feb-2014 ✈ CZBA - KIAG

Flight Track Log - Related Links

Times and Time Zones

All times are in EST time to prevent confusion due to time zone crossing. See the N775OR flight status page for this flight to view local times or setup timezone preferences in your user account.

Time Position Orientation Groundspeed Altitude Reporting Facility
EST Latitude Longitude Course Direction KTS MPH feet Rate Location/Type
12:41PM 43.4333 -79.8333 313° West 210 242 1,000  Level Toronto Center
12:42PM 43.4667 -79.8833 313° West 130 150 2,800 1,080 Climbing Toronto Center
12:43PM 43.4167 -79.8833 180° South 170 196 3,200 240 Climbing Toronto Center
12:44PM 43.3833 -79.8333 133° Southeast 190 219 3,300 -120 Climbing Toronto Center
12:45PM 43.3333 -79.8000 154° Southeast 200 230 3,000 -180 Descending Toronto Center
12:46PM 43.3167 -79.7167 105° East 190 219 3,000  Level Toronto Center
12:47PM 43.3000 -79.6500 109° East 200 230 3,000  Level Toronto Center
12:48PM 43.2833 -79.5833 109° East 200 230 3,000  Level Toronto Center
12:49PM 43.2667 -79.5167 109° East 200 230 3,000  Level Toronto Center
12:50PM 43.2500 -79.4500 109° East 200 230 3,000  Level Toronto Center
12:51PM 43.2167 -79.3667 119° Southeast 200 230 3,000  Level Toronto Center
12:53PM 43.1997 -79.2567 102° East 203 234 3,000  Level Cleveland Center
12:54PM 43.1875 -79.1786 102° East 202 232 3,000  Level Cleveland Center
12:55PM 43.1744 -79.1036 103° East 196 226 3,000  Level Cleveland Center
12:56PM 43.1717 -79.0328 93° East 193 222 3,000  Level Cleveland Center
12:57PM 43.1678 -78.9558 94° East 194 223 3,000  Level Cleveland Center
12:58PM 43.1644 -78.8822 94° East 187 215 3,000  Level Cleveland Center
12:59PM 43.1617 -78.8056 93° East 190 219 3,000 -240 Level Cleveland Center
01:00PM 43.1444 -78.7372 109° East 191 220 2,500 -360 Descending Cleveland Center
01:01PM 43.1033 -78.7639 205° Southwest 179 206 2,300 -120 Descending Cleveland Center
01:02PM 43.1089 -78.8217 278° West 159 183 2,300 -360 Level Cleveland Center
01:03PM 43.1081 -78.8647 268° West 135 155 1,600 -720 Descending Cleveland Center